PAPM

Details ICAO PAPM (PTU)
Name PLATINUM
Region USA (Alaska)
Timezone America/Anchorage (UTC-9.0)
Plans Departing 1
Arriving 2
Stats Elevation 15 ft / 5 m (AMSL)
Location 59.011298° -161.819757°
Runways 2
Magnetic Variation 11.377° E
Sunrise 2017-12-13 19:35:15 UTC / 2017-12-13 10:35:15 Local
Sunset 2017-12-14 01:50:57 UTC / 2017-12-13 16:50:57 Local
Advertisement - Login to hide

Runways

ID Width Length Bearing (true) Bearing (mag) Surface Threshold Offset Overrun Length
09 50 ft / 15 m 1,915 ft / 584 m 108.19° 96.81° Gravel 0 ft / 0 m 0 ft / 0 m
13 50 ft / 15 m 3,297 ft / 1,005 m 154.88° 143.50° Gravel 0 ft / 0 m 0 ft / 0 m
27 50 ft / 15 m 1,915 ft / 584 m 288.20° 276.82° Gravel 0 ft / 0 m 0 ft / 0 m
31 50 ft / 15 m 3,297 ft / 1,005 m 334.89° 323.51° Gravel 0 ft / 0 m 0 ft / 0 m

Map

Weather


0- 5 10 15 20 25 30 35+ Temperature / ° C

Clouds and Precipitation
Forecast for 2017-12-13 12:00 UTC. Updated 2 hours ago

Ground ~20,000 ft ~40,000 ft Winds

METAR

PAPM 131017Z AUTO 11010KT 10SM FEW007 BKN034 OVC048 02/01 A2936 RMK AO2 RAE0959UPB0959E01 P0000 FZRANO

TAF

Not found

Frequencies

Recorded 118.37 MHz AWOS THREE
Approach 127.60 MHz ANCHORAGE ARTCC
Unicom 122.80 MHz CTAF
Warning: Do not use this data for real-world aviation or navigation. No guarantee of current accuracy is given.